Molt, MT (59057)

4:04 AM MDT on September 18, 2014 (GMT -0600)
Billings Flying Mustangs | Change Station
CLOSE
Current Station
Personal Weather Station
Location: Billings, MT
Elevation: 3504 ft
Nearby Weather Stations

Elev 3504 ft 45.79 °N, 108.73 °W | Updated 3 seconds ago

Partly Cloudy
Partly Cloudy
69.0 °F
Feels Like 69.0 °F
N
7.4
Wind Variable Wind from SW
Gusts 7.9 mph

Today
High -- | Low -- °F
--% Chance of Precip.
Yesterday
High -- | Low -- °F
Precip. -- in
6:57 AM 7:20 PM
Waning Crescent, 28% visible
Pressure 29.70 in
Visibility 10.0 miles
Clouds Few 12000 ft
Scattered Clouds 22000 ft
Dew Point 40 °F
Humidity 36%
Rainfall 0.00 in
Snow Depth 1 in , 0 in , 0 in
UV 0 out of 12
Pollen 6.00 out of 12
Air Quality Not available.
Flu Activity Not available.
METAR KBIL 180953Z 21007KT 10SM FEW120 SCT220 17/08 A2980 RMK AO2 RAE0858 TSE11 SLP056 OCNL LTG CB DSNT N-NE P0000 T01720083

More Conditions Fewer Conditions

Pressure 29.70 in
Visibility 10.0 miles
Clouds Few 12000 ft
Scattered Clouds 22000 ft
Dew Point 40 °F
Humidity 36%
Rainfall 0.00 in
Snow Depth 1 in , 0 in , 0 in
UV 0 out of 12
Pollen 6.00 out of 12
Air Quality Not available.
Flu Activity Not available.
METAR KBIL 180953Z 21007KT 10SM FEW120 SCT220 17/08 A2980 RMK AO2 RAE0858 TSE11 SLP056 OCNL LTG CB DSNT N-NE P0000 T01720083

More Conditions Fewer Conditions

10-Day Weather Forecast

Almanac

Astronomy

Sep. 18, 2014 Rise Set
Actual Time 6:57 AM MDT 7:20 PM MDT
Civil Twilight 6:27 AM MDT 7:50 PM MDT
Nautical Twilight 5:52 AM MDT 8:25 PM MDT
Astronomical Twilight 5:15 AM MDT 9:01 PM MDT
Moon 1:39 AM MDT 4:24 PM MDT
Length of Visible Light 13h 22m
Length of Day
12h 23m
Tomorrow will be 3m 13s shorter.
Waning Crescent, 28% of the Moon is Illuminated
Today
Waning Crescent
Sep 24
New
Oct 1
First Quarter
Oct 8
Full
Oct 15
Last Quarter

Today's Extremes

State Highs State Lows

Community

WunderPhotos

Upload Photos

1,754,313 photos uploaded!

Nearby

Snow Depth

Station Depth Elevation
Peterson Meadows 0 in 7200 ft
Fisher Creek 1 in 9100 ft
Bloody Dick 0 in 7550 ft
Flattop Mountain 0 in 6300 ft
Nez Perce Camp 0 in 5650 ft

Earthquake Activity

City Distance Mag. Time & Date
No recent earthquake activity has been reported nearby.
Minimum magnitude displayed is 2.5.

Coastal Water Temperatures

Place Temperature
No Stations Reporting

Nearby Weather Stations